createdAt,value
2019-05-30T00:01:48.211Z,100734.89
2019-05-30T00:04:31.130Z,100730.12
2019-05-30T00:07:21.524Z,100726.81
2019-05-30T00:10:05.214Z,100730.73
2019-05-30T00:12:58.567Z,100727.31
2019-05-30T00:16:02.907Z,100729.22
2019-05-30T00:18:46.227Z,100730.30
2019-05-30T00:21:36.624Z,100721.73
2019-05-30T00:24:19.882Z,100722.08
2019-05-30T00:27:10.326Z,100726.27
2019-05-30T00:29:53.627Z,100723.42
2019-05-30T00:32:44.023Z,100720.55
2019-05-30T00:35:26.997Z,100720.75
2019-05-30T00:38:17.415Z,100719.54
2019-05-30T00:41:00.582Z,100722.59
2019-05-30T00:43:50.979Z,100723.30
2019-05-30T00:46:33.741Z,100724.69
2019-05-30T00:49:24.171Z,100719.38
2019-05-30T00:52:27.108Z,100719.78
2019-05-30T00:55:17.500Z,100721.11
2019-05-30T00:58:01.026Z,100727.92
2019-05-30T01:00:51.478Z,100730.67
2019-05-30T01:03:34.841Z,100724.44
2019-05-30T01:06:38.026Z,100724.20
2019-05-30T01:09:29.928Z,100724.20
2019-05-30T01:12:20.348Z,100730.97
2019-05-30T01:18:40.159Z,100723.91
2019-05-30T01:21:22.972Z,100720.78
2019-05-30T01:24:13.364Z,100719.77
2019-05-30T01:26:57.159Z,100721.59
2019-05-30T01:29:47.559Z,100717.25
2019-05-30T01:32:31.080Z,100717.82
2019-05-30T01:35:21.525Z,100719.13
2019-05-30T01:38:06.063Z,100722.16
2019-05-30T01:40:57.647Z,100726.48
2019-05-30T01:44:01.846Z,100718.52
2019-05-30T01:46:52.340Z,100726.28
2019-05-30T01:49:35.004Z,100721.69
2019-05-30T01:52:25.412Z,100721.53
2019-05-30T01:55:09.050Z,100721.38
2019-05-30T01:58:01.570Z,100716.80
2019-05-30T02:01:18.961Z,100714.91
2019-05-30T02:03:56.060Z,100720.71
2019-05-30T02:06:39.235Z,100715.77
2019-05-30T02:09:29.653Z,100713.96
2019-05-30T02:12:13.240Z,100712.02
2019-05-30T02:15:03.691Z,100711.66
2019-05-30T02:17:47.315Z,100708.20
2019-05-30T02:20:37.709Z,100708.26
2019-05-30T02:23:20.357Z,100707.98
2019-05-30T02:26:10.813Z,100710.23
2019-05-30T02:28:53.583Z,100710.88
2019-05-30T02:31:39.330Z,100711.03
2019-05-30T02:34:28.751Z,100707.48
2019-05-30T02:37:12.887Z,100708.54
2019-05-30T02:40:07.078Z,100707.58
2019-05-30T02:43:09.800Z,100711.96
2019-05-30T02:46:00.936Z,100707.70
2019-05-30T02:49:06.587Z,100716.19
2019-05-30T02:51:49.594Z,100722.56
2019-05-30T02:54:39.956Z,100713.93
2019-05-30T02:57:23.408Z,100716.80
2019-05-30T03:00:17.684Z,100720.72
2019-05-30T03:03:18.878Z,100716.12
2019-05-30T03:06:11.178Z,100718.43
2019-05-30T03:09:13.895Z,100721.33
2019-05-30T03:12:06.377Z,100718.98
2019-05-30T03:15:12.338Z,100724.75
2019-05-30T03:18:02.394Z,100727.25
2019-05-30T03:21:08.587Z,100719.91
2019-05-30T03:23:51.112Z,100727.95
2019-05-30T03:26:41.615Z,100728.72
2019-05-30T03:29:24.624Z,100728.34
2019-05-30T03:35:19.004Z,100729.49
2019-05-30T03:38:00.747Z,100729.58
2019-05-30T03:40:51.345Z,100739.98
2019-05-30T03:43:54.118Z,100733.57
2019-05-30T03:47:06.315Z,100735.05
2019-05-30T03:50:12.423Z,100736.92
2019-05-30T03:53:04.584Z,100729.58
2019-05-30T03:56:11.589Z,100741.03
2019-05-30T03:59:39.882Z,100738.08
2019-05-30T04:02:27.878Z,100740.41
2019-05-30T04:05:59.489Z,100742.91
2019-05-30T04:08:43.586Z,100747.44
2019-05-30T04:12:14.976Z,100750.16
2019-05-30T04:15:38.194Z,100751.79
2019-05-30T04:18:20.925Z,100753.52
2019-05-30T04:21:13.342Z,100747.63
2019-05-30T04:24:16.388Z,100749.97
2019-05-30T04:27:25.798Z,100753.95
2019-05-30T04:30:09.857Z,100746.00
2019-05-30T04:33:17.188Z,100752.63
2019-05-30T04:36:03.664Z,100747.54
2019-05-30T04:38:54.083Z,100744.77
2019-05-30T04:41:36.625Z,100749.84
2019-05-30T04:47:29.071Z,100750.81
2019-05-30T04:50:20.685Z,100756.78
2019-05-30T04:53:24.532Z,100746.52
2019-05-30T04:56:16.861Z,100745.77
2019-05-30T04:59:20.335Z,100749.66
2019-05-30T05:02:13.543Z,100752.92
2019-05-30T05:05:22.590Z,100752.77
2019-05-30T05:08:09.061Z,100757.05
2019-05-30T05:10:51.909Z,100759.66
2019-05-30T05:13:42.308Z,100759.11
2019-05-30T05:16:34.808Z,100769.72
2019-05-30T05:19:17.400Z,100764.67
2019-05-30T05:22:27.731Z,100759.67
2019-05-30T05:25:10.472Z,100758.25
2019-05-30T05:28:00.867Z,100754.77
2019-05-30T05:30:44.112Z,100759.78
2019-05-30T05:33:34.497Z,100757.06
2019-05-30T05:36:17.477Z,100757.43
2019-05-30T05:42:16.184Z,100753.53
2019-05-30T05:45:06.021Z,100751.55
2019-05-30T05:48:08.543Z,100748.83
2019-05-30T05:50:59.041Z,100755.11
2019-05-30T05:53:41.819Z,100755.73
2019-05-30T05:56:32.230Z,100747.77
2019-05-30T05:59:16.878Z,100755.05
2019-05-30T06:02:07.425Z,100762.84
2019-05-30T06:04:50.544Z,100761.64
2019-05-30T06:08:21.812Z,100765.06
2019-05-30T06:11:04.893Z,100767.47
2019-05-30T06:13:55.314Z,100772.31
2019-05-30T06:16:38.118Z,100762.55
2019-05-30T06:19:45.359Z,100773.11
2019-05-30T06:22:33.864Z,100782.34
2019-05-30T06:25:27.194Z,100776.70
2019-05-30T06:28:28.647Z,100775.65
2019-05-30T06:31:20.239Z,100773.47
2019-05-30T06:34:34.831Z,100772.14
2019-05-30T06:37:15.766Z,100780.75
2019-05-30T06:39:58.602Z,100772.23
2019-05-30T06:42:48.978Z,100786.11
2019-05-30T06:45:31.957Z,100799.11
2019-05-30T06:48:22.640Z,100798.08
2019-05-30T06:51:27.046Z,100790.98
2019-05-30T06:54:17.452Z,100792.19
2019-05-30T06:57:00.254Z,100792.41
2019-05-30T06:59:54.245Z,100786.91
2019-05-30T07:02:37.615Z,100796.66
2019-05-30T07:05:29.939Z,100779.59
2019-05-30T07:08:33.051Z,100794.68
2019-05-30T07:11:24.669Z,100803.63
2019-05-30T07:14:27.762Z,100803.73
2019-05-30T07:17:18.958Z,100787.18
2019-05-30T07:20:06.070Z,100794.31
2019-05-30T07:22:56.596Z,100804.75
2019-05-30T07:25:39.989Z,100810.84
2019-05-30T07:28:30.423Z,100812.73
2019-05-30T07:31:13.334Z,100817.86
2019-05-30T07:34:03.832Z,100824.58
2019-05-30T07:37:06.443Z,100832.58
2019-05-30T07:39:56.850Z,100833.77
2019-05-30T07:42:39.858Z,100837.47
2019-05-30T07:45:31.061Z,100838.77
2019-05-30T07:48:34.616Z,100841.79
2019-05-30T07:51:26.290Z,100841.28
2019-05-30T07:54:31.000Z,100853.81
2019-05-30T07:57:21.457Z,100853.78
2019-05-30T08:00:04.897Z,100872.72
2019-05-30T08:02:55.309Z,100859.13
2019-05-30T08:05:45.722Z,100857.97
2019-05-30T08:08:36.241Z,100856.67
2019-05-30T08:11:19.439Z,100860.16
2019-05-30T08:14:09.916Z,100859.09
2019-05-30T08:16:53.025Z,100855.71
2019-05-30T08:19:36.156Z,100856.54
2019-05-30T08:22:27.877Z,100855.58
2019-05-30T08:25:32.144Z,100866.02
2019-05-30T08:31:32.683Z,100855.31
2019-05-30T08:34:23.141Z,100859.66
2019-05-30T08:37:25.775Z,100854.03
2019-05-30T08:43:09.918Z,100843.61
2019-05-30T08:46:00.316Z,100861.08
2019-05-30T08:48:43.727Z,100828.69
2019-05-30T08:51:34.220Z,100842.67
2019-05-30T08:54:17.362Z,100839.27
2019-05-30T08:57:07.787Z,100847.59
2019-05-30T08:59:50.964Z,100836.75
2019-05-30T09:02:41.310Z,100833.87
2019-05-30T09:05:24.534Z,100842.78
2019-05-30T09:08:14.972Z,100843.37
2019-05-30T09:10:58.209Z,100839.55
2019-05-30T09:13:48.605Z,100849.73
2019-05-30T09:16:31.344Z,100839.38
2019-05-30T09:19:21.725Z,100854.13
2019-05-30T09:22:04.753Z,100834.84
2019-05-30T09:24:55.136Z,100851.29
2019-05-30T09:27:39.409Z,100851.29
2019-05-30T09:30:30.700Z,100845.77
2019-05-30T09:33:14.142Z,100843.89
2019-05-30T09:36:13.379Z,100848.45
2019-05-30T09:39:08.970Z,100845.77
2019-05-30T09:41:59.390Z,100838.95
2019-05-30T09:44:47.962Z,100842.33
2019-05-30T09:47:36.628Z,100861.26
2019-05-30T09:50:40.961Z,100865.43
2019-05-30T09:53:31.580Z,100852.92
2019-05-30T09:56:14.970Z,100869.41
2019-05-30T09:59:05.392Z,100866.75
2019-05-30T10:01:48.522Z,100878.19
2019-05-30T10:04:38.946Z,100865.95
2019-05-30T10:07:22.093Z,100874.00
2019-05-30T10:10:12.874Z,100874.63
2019-05-30T10:12:56.554Z,100875.38
2019-05-30T10:15:40.127Z,100889.39
2019-05-30T10:18:30.562Z,100872.44
2019-05-30T10:21:13.162Z,100879.27
2019-05-30T10:24:03.563Z,100882.63
2019-05-30T10:26:47.225Z,100869.72
2019-05-30T10:29:37.669Z,100863.62
2019-05-30T10:32:20.348Z,100871.33
2019-05-30T10:38:04.057Z,100880.34
2019-05-30T10:40:54.475Z,100878.94
2019-05-30T10:43:45.976Z,100885.39
2019-05-30T10:46:50.791Z,100877.94
2019-05-30T10:49:41.450Z,100887.84
2019-05-30T10:52:24.157Z,100880.94
2019-05-30T10:58:43.028Z,100882.92
2019-05-30T11:01:53.063Z,100896.74
2019-05-30T11:04:57.655Z,100881.41
2019-05-30T11:08:10.850Z,100888.92
2019-05-30T11:10:54.763Z,100897.92
2019-05-30T11:13:45.295Z,100906.49
2019-05-30T11:16:28.731Z,100899.18
2019-05-30T11:19:12.165Z,100902.70
2019-05-30T11:22:02.536Z,100904.63
2019-05-30T11:24:45.194Z,100898.15
2019-05-30T11:27:35.693Z,100904.52
2019-05-30T11:30:18.838Z,100895.02
2019-05-30T11:33:09.264Z,100903.95
2019-05-30T11:35:55.137Z,100904.50
2019-05-30T11:38:45.602Z,100903.03
2019-05-30T11:41:28.938Z,100904.52
2019-05-30T11:44:19.344Z,100900.89
2019-05-30T11:47:02.812Z,100903.30
2019-05-30T11:49:53.624Z,100904.02
2019-05-30T11:53:01.852Z,100908.97
2019-05-30T11:56:04.409Z,100895.78
2019-05-30T11:58:55.926Z,100895.78
2019-05-30T12:01:59.074Z,100898.64
2019-05-30T12:04:50.495Z,100914.39
2019-05-30T12:07:54.827Z,100903.25
2019-05-30T12:10:45.355Z,100908.39
2019-05-30T12:13:28.838Z,100909.45
2019-05-30T12:16:19.254Z,100907.91
2019-05-30T12:19:02.387Z,100914.70
2019-05-30T12:21:53.548Z,100914.16
2019-05-30T12:24:57.777Z,100914.13
2019-05-30T12:27:48.549Z,100910.67
2019-05-30T12:30:31.927Z,100915.53
2019-05-30T12:33:22.371Z,100920.48
2019-05-30T12:36:05.581Z,100919.22
2019-05-30T12:42:06.705Z,100913.06
2019-05-30T12:44:57.068Z,100915.14
2019-05-30T12:47:39.753Z,100917.34
2019-05-30T12:50:29.528Z,100916.36
2019-05-30T12:53:12.521Z,100920.00
2019-05-30T12:56:02.919Z,100928.02
2019-05-30T12:58:46.004Z,100930.20
2019-05-30T13:01:36.466Z,100930.02
2019-05-30T13:04:20.084Z,100926.23
2019-05-30T13:07:10.500Z,100936.49
2019-05-30T13:09:54.972Z,100936.48
2019-05-30T13:13:19.002Z,100938.61
2019-05-30T13:16:09.194Z,100947.44
2019-05-30T13:18:52.184Z,100937.08
2019-05-30T13:21:42.648Z,100928.68
2019-05-30T13:24:25.667Z,100932.80
2019-05-30T13:27:16.128Z,100933.55
2019-05-30T13:29:59.972Z,100941.27
2019-05-30T13:32:50.416Z,100940.69
2019-05-30T13:35:32.910Z,100939.00
2019-05-30T13:38:26.324Z,100938.66
2019-05-30T13:41:28.212Z,100947.91
2019-05-30T13:44:18.595Z,100937.91
2019-05-30T13:47:02.536Z,100940.08
2019-05-30T13:49:52.961Z,100939.05
2019-05-30T13:52:36.427Z,100950.09
2019-05-30T13:55:28.287Z,100950.39
2019-05-30T13:58:31.916Z,100952.95
2019-05-30T14:01:22.375Z,100955.44
2019-05-30T14:04:06.295Z,100959.36
2019-05-30T14:06:56.792Z,100952.76
2019-05-30T14:09:39.795Z,100956.82
2019-05-30T14:12:30.314Z,100964.94
2019-05-30T14:15:14.469Z,100956.16
2019-05-30T14:18:05.144Z,100976.07
2019-05-30T14:20:48.771Z,100957.25
2019-05-30T14:23:39.150Z,100963.92
2019-05-30T14:26:21.913Z,100966.59
2019-05-30T14:29:12.327Z,100957.25
2019-05-30T14:32:03.799Z,100963.84
2019-05-30T14:35:08.344Z,100958.69
2019-05-30T14:37:58.955Z,100956.66
2019-05-30T14:40:42.485Z,100944.01
2019-05-30T14:43:32.891Z,100944.21
2019-05-30T14:46:16.671Z,100949.64
2019-05-30T14:49:08.533Z,100950.28
2019-05-30T14:52:12.126Z,100940.05
2019-05-30T14:55:05.106Z,100949.47
2019-05-30T14:58:09.144Z,100942.81
2019-05-30T15:00:59.636Z,100947.97
2019-05-30T15:03:43.006Z,100949.91
2019-05-30T15:06:33.390Z,100946.38
2019-05-30T15:09:25.508Z,100945.53
2019-05-30T15:12:08.965Z,100946.20
2019-05-30T15:14:52.228Z,100945.54
2019-05-30T15:17:42.657Z,100944.12
2019-05-30T15:20:25.933Z,100947.82
2019-05-30T15:23:16.349Z,100942.53
2019-05-30T15:25:59.641Z,100947.00
2019-05-30T15:28:50.071Z,100941.20
2019-05-30T15:31:33.413Z,100951.60
2019-05-30T15:34:23.835Z,100945.64
2019-05-30T15:37:06.709Z,100953.47
2019-05-30T15:39:57.085Z,100946.75
2019-05-30T15:42:47.534Z,100946.42
2019-05-30T15:45:30.365Z,100946.02
2019-05-30T15:48:20.749Z,100948.30
2019-05-30T15:51:03.863Z,100950.08
2019-05-30T15:53:54.245Z,100946.55
2019-05-30T15:56:37.202Z,100937.92
2019-05-30T15:59:27.649Z,100939.55
2019-05-30T16:02:11.907Z,100942.49
2019-05-30T16:05:02.472Z,100941.98
2019-05-30T16:07:45.139Z,100942.84
2019-05-30T16:10:36.895Z,100936.19
2019-05-30T16:13:40.106Z,100943.48
2019-05-30T16:16:39.422Z,100924.79
2019-05-30T16:19:35.037Z,100926.60
2019-05-30T16:22:25.480Z,100929.28
2019-05-30T16:25:08.489Z,100921.86
2019-05-30T16:27:58.906Z,100934.89
2019-05-30T16:30:42.297Z,100924.28
2019-05-30T16:33:32.702Z,100928.33
2019-05-30T16:36:16.090Z,100923.36
2019-05-30T16:40:04.077Z,100924.13
2019-05-30T16:42:51.346Z,100924.31
2019-05-30T16:45:41.753Z,100925.66
2019-05-30T16:48:25.028Z,100926.52
2019-05-30T16:51:16.583Z,100926.17
2019-05-30T16:54:19.683Z,100925.27
2019-05-30T16:57:10.090Z,100920.91
2019-05-30T16:59:52.883Z,100921.92
2019-05-30T17:02:43.355Z,100915.11
2019-05-30T17:05:26.587Z,100923.30
2019-05-30T17:08:18.071Z,100912.38
2019-05-30T17:11:22.114Z,100909.78
2019-05-30T17:14:12.575Z,100908.25
2019-05-30T17:16:55.234Z,100910.36
2019-05-30T17:19:45.719Z,100911.66
2019-05-30T17:22:36.183Z,100910.66
2019-05-30T17:25:19.315Z,100897.67
2019-05-30T17:28:09.692Z,100909.36
2019-05-30T17:30:52.747Z,100900.43
2019-05-30T17:33:43.141Z,100908.31
2019-05-30T17:36:26.267Z,100897.39
2019-05-30T17:39:16.721Z,100905.95
2019-05-30T17:41:59.823Z,100903.94
2019-05-30T17:44:50.302Z,100904.63
2019-05-30T17:47:33.117Z,100902.36
2019-05-30T17:50:23.850Z,100904.77
2019-05-30T17:53:07.112Z,100902.88
2019-05-30T17:55:59.392Z,100905.83
2019-05-30T17:59:02.469Z,100907.49
2019-05-30T18:01:52.938Z,100908.48
2019-05-30T18:04:36.127Z,100913.05
2019-05-30T18:07:26.950Z,100907.64
2019-05-30T18:10:31.816Z,100902.20
2019-05-30T18:13:23.053Z,100898.88
2019-05-30T18:16:27.142Z,100909.38
2019-05-30T18:19:09.971Z,100904.37
2019-05-30T18:21:53.147Z,100899.41
2019-05-30T18:24:43.712Z,100911.77
2019-05-30T18:27:26.362Z,100913.31
2019-05-30T18:30:28.361Z,100912.91
2019-05-30T18:33:18.855Z,100910.84
2019-05-30T18:36:02.350Z,100912.51
2019-05-30T18:38:52.755Z,100915.18
2019-05-30T18:41:35.543Z,100911.31
2019-05-30T18:44:28.844Z,100916.31
2019-05-30T18:47:31.234Z,100925.27
2019-05-30T18:50:23.083Z,100925.85
2019-05-30T18:53:28.830Z,100931.02
2019-05-30T18:56:19.293Z,100925.11
2019-05-30T18:59:02.064Z,100928.41
2019-05-30T19:01:52.540Z,100924.01
2019-05-30T19:04:36.037Z,100923.47
2019-05-30T19:07:26.768Z,100931.47
2019-05-30T19:10:10.203Z,100932.47
2019-05-30T19:13:00.603Z,100929.80
2019-05-30T19:15:43.894Z,100933.27
2019-05-30T19:18:39.657Z,100930.12
2019-05-30T19:21:23.910Z,100942.47
2019-05-30T19:24:14.301Z,100946.75
2019-05-30T19:26:57.858Z,100945.03
2019-05-30T19:29:48.373Z,100943.84
2019-05-30T19:32:31.095Z,100944.08
2019-05-30T19:35:21.521Z,100949.16
2019-05-30T19:38:11.956Z,100946.80
2019-05-30T19:40:54.799Z,100949.48
2019-05-30T19:43:45.193Z,100957.59
2019-05-30T19:46:28.612Z,100962.30
2019-05-30T19:49:19.028Z,100963.97
2019-05-30T19:52:02.492Z,100963.00
2019-05-30T19:54:52.948Z,100964.34
2019-05-30T19:57:35.771Z,100973.30
2019-05-30T20:00:26.196Z,100970.62
2019-05-30T20:03:09.640Z,100971.10
2019-05-30T20:06:00.079Z,100975.73
2019-05-30T20:08:54.509Z,100975.26
2019-05-30T20:11:37.182Z,100978.52
2019-05-30T20:14:41.305Z,100984.73
2019-05-30T20:17:31.586Z,100984.33
2019-05-30T20:20:50.374Z,100996.77
2019-05-30T20:23:28.222Z,100998.73
2019-05-30T20:26:11.557Z,100994.41
2019-05-30T20:29:01.995Z,100997.16
2019-05-30T20:31:45.778Z,100985.86
2019-05-30T20:34:36.720Z,100994.28
2019-05-30T20:37:40.906Z,100996.92
2019-05-30T20:40:31.351Z,101001.55
2019-05-30T20:43:14.200Z,100998.92
2019-05-30T20:46:04.609Z,101001.83
2019-05-30T20:48:54.991Z,101005.47
2019-05-30T20:51:38.691Z,101010.42
2019-05-30T20:54:29.982Z,101004.69
2019-05-30T20:57:13.276Z,101014.22
2019-05-30T21:00:03.970Z,101010.02
2019-05-30T21:02:47.551Z,101014.30
2019-05-30T21:05:38.153Z,101017.48
2019-05-30T21:08:21.037Z,101022.73
2019-05-30T21:11:31.886Z,101025.62
2019-05-30T21:14:33.558Z,101024.82
2019-05-30T21:17:45.907Z,101025.73
2019-05-30T21:20:37.786Z,101021.14
2019-05-30T21:23:49.902Z,101027.33
2019-05-30T21:26:36.691Z,101034.49
2019-05-30T21:29:33.443Z,101028.23
2019-05-30T21:32:04.770Z,101032.98
2019-05-30T21:34:55.151Z,101029.36
2019-05-30T21:37:45.858Z,101034.79
2019-05-30T21:40:49.855Z,101032.81
2019-05-30T21:43:40.420Z,101030.33
2019-05-30T21:46:23.520Z,101037.16
2019-05-30T21:49:13.986Z,101030.33
2019-05-30T21:51:57.251Z,101040.53
2019-05-30T21:54:47.896Z,101036.84
2019-05-30T21:57:38.289Z,101043.14
2019-05-30T22:01:06.742Z,101044.56
2019-05-30T22:03:51.000Z,101042.98
2019-05-30T22:06:42.764Z,101042.05
2019-05-30T22:09:47.330Z,101039.67
2019-05-30T22:12:30.810Z,101039.84
2019-05-30T22:15:13.797Z,101039.55
2019-05-30T22:18:04.224Z,101039.27
2019-05-30T22:20:47.992Z,101046.98
2019-05-30T22:23:38.495Z,101040.67
2019-05-30T22:26:21.001Z,101037.82
2019-05-30T22:29:11.400Z,101039.73
2019-05-30T22:32:01.795Z,101035.62
2019-05-30T22:34:53.019Z,101030.34
2019-05-30T22:37:56.613Z,101029.47
2019-05-30T22:40:47.874Z,101031.62
2019-05-30T22:43:52.917Z,101024.31
2019-05-30T22:46:44.045Z,101030.30
2019-05-30T22:49:48.696Z,101028.88
2019-05-30T22:52:39.145Z,101031.84
2019-05-30T22:55:22.653Z,101027.09
2019-05-30T22:58:13.030Z,101031.67
2019-05-30T23:00:56.556Z,101036.03
2019-05-30T23:03:47.213Z,101033.94
2019-05-30T23:06:52.348Z,101041.00
2019-05-30T23:09:42.801Z,101041.47
2019-05-30T23:12:26.183Z,101042.98
2019-05-30T23:15:16.591Z,101036.67
2019-05-30T23:17:59.601Z,101034.69
2019-05-30T23:20:42.522Z,101035.84
2019-05-30T23:23:32.911Z,101030.52
2019-05-30T23:26:16.151Z,101029.66
2019-05-30T23:29:06.554Z,101032.78
2019-05-30T23:31:49.902Z,101036.50
2019-05-30T23:34:40.395Z,101031.74
2019-05-30T23:37:23.344Z,101034.12
2019-05-30T23:43:55.198Z,101039.45
2019-05-30T23:46:34.395Z,101036.89
2019-05-30T23:49:24.808Z,101036.61
2019-05-30T23:52:08.070Z,101029.76
2019-05-30T23:54:58.451Z,101028.32
2019-05-30T23:57:41.269Z,101022.63
